sensor_id;sensor_type;location;lat;lon;timestamp;P1;durP1;ratioP1;P2;durP2;ratioP2
28796;SDS011;24974;54.444;18.560;2023-05-07T00:01:11;11.02;;;7.85;;
28796;SDS011;24974;54.444;18.560;2023-05-07T00:03:42;11.45;;;7.90;;
28796;SDS011;24974;54.444;18.560;2023-05-07T00:06:14;10.13;;;7.68;;
28796;SDS011;24974;54.444;18.560;2023-05-07T00:08:45;12.40;;;7.40;;
28796;SDS011;24974;54.444;18.560;2023-05-07T00:11:16;14.48;;;8.40;;
28796;SDS011;24974;54.444;18.560;2023-05-07T00:13:47;13.40;;;8.15;;
28796;SDS011;24974;54.444;18.560;2023-05-07T00:16:18;16.30;;;8.98;;
28796;SDS011;24974;54.444;18.560;2023-05-07T00:18:49;13.07;;;8.32;;
28796;SDS011;24974;54.444;18.560;2023-05-07T00:21:20;12.48;;;8.77;;
28796;SDS011;24974;54.444;18.560;2023-05-07T00:23:52;14.48;;;9.13;;
28796;SDS011;24974;54.444;18.560;2023-05-07T00:26:24;14.13;;;9.07;;
28796;SDS011;24974;54.444;18.560;2023-05-07T00:28:55;11.88;;;9.18;;
28796;SDS011;24974;54.444;18.560;2023-05-07T00:31:26;15.27;;;9.07;;
28796;SDS011;24974;54.444;18.560;2023-05-07T00:33:57;13.40;;;8.43;;
28796;SDS011;24974;54.444;18.560;2023-05-07T00:36:28;15.02;;;8.60;;
28796;SDS011;24974;54.444;18.560;2023-05-07T00:39:00;17.00;;;8.77;;
28796;SDS011;24974;54.444;18.560;2023-05-07T00:41:33;15.30;;;8.63;;
28796;SDS011;24974;54.444;18.560;2023-05-07T00:44:05;19.40;;;9.43;;
28796;SDS011;24974;54.444;18.560;2023-05-07T00:46:35;17.15;;;8.90;;
28796;SDS011;24974;54.444;18.560;2023-05-07T00:49:06;12.18;;;9.07;;
28796;SDS011;24974;54.444;18.560;2023-05-07T00:51:37;16.25;;;8.68;;
28796;SDS011;24974;54.444;18.560;2023-05-07T00:54:08;15.48;;;8.52;;
28796;SDS011;24974;54.444;18.560;2023-05-07T00:56:39;23.88;;;9.43;;
28796;SDS011;24974;54.444;18.560;2023-05-07T04:59:36;10.95;;;5.53;;
28796;SDS011;24974;54.444;18.560;2023-05-07T05:02:07;11.93;;;5.55;;
28796;SDS011;24974;54.444;18.560;2023-05-07T05:04:38;10.85;;;5.60;;
28796;SDS011;24974;54.444;18.560;2023-05-07T05:07:10;14.60;;;5.40;;
28796;SDS011;24974;54.444;18.560;2023-05-07T05:09:41;9.32;;;4.53;;
28796;SDS011;24974;54.444;18.560;2023-05-07T05:12:12;9.30;;;4.85;;
28796;SDS011;24974;54.444;18.560;2023-05-07T05:14:43;11.65;;;5.55;;
28796;SDS011;24974;54.444;18.560;2023-05-07T05:17:14;9.52;;;5.05;;
28796;SDS011;24974;54.444;18.560;2023-05-07T05:19:45;7.22;;;5.25;;
28796;SDS011;24974;54.444;18.560;2023-05-07T05:22:15;8.68;;;4.90;;
28796;SDS011;24974;54.444;18.560;2023-05-07T05:24:46;7.22;;;5.13;;
28796;SDS011;24974;54.444;18.560;2023-05-07T05:27:17;10.93;;;4.88;;
28796;SDS011;24974;54.444;18.560;2023-05-07T05:29:48;7.00;;;4.78;;
28796;SDS011;24974;54.444;18.560;2023-05-07T05:32:19;8.15;;;5.13;;
28796;SDS011;24974;54.444;18.560;2023-05-07T05:34:49;9.23;;;5.03;;
28796;SDS011;24974;54.444;18.560;2023-05-07T05:37:21;10.07;;;5.97;;
28796;SDS011;24974;54.444;18.560;2023-05-07T05:39:53;7.53;;;5.38;;
28796;SDS011;24974;54.444;18.560;2023-05-07T05:42:25;7.97;;;5.28;;
28796;SDS011;24974;54.444;18.560;2023-05-07T05:44:56;9.93;;;5.15;;
28796;SDS011;24974;54.444;18.560;2023-05-07T05:47:28;6.80;;;4.72;;
28796;SDS011;24974;54.444;18.560;2023-05-07T05:50:00;6.95;;;5.10;;
28796;SDS011;24974;54.444;18.560;2023-05-07T05:52:31;9.68;;;5.47;;
28796;SDS011;24974;54.444;18.560;2023-05-07T05:55:02;7.68;;;4.72;;
28796;SDS011;24974;54.444;18.560;2023-05-07T05:57:33;10.15;;;5.50;;
28796;SDS011;24974;54.444;18.560;2023-05-07T06:00:05;10.48;;;5.25;;
28796;SDS011;24974;54.444;18.560;2023-05-07T06:02:48;6.75;;;4.80;;
28796;SDS011;24974;54.444;18.560;2023-05-07T06:05:26;11.50;;;5.15;;
28796;SDS011;24974;54.444;18.560;2023-05-07T06:08:00;8.80;;;4.90;;
28796;SDS011;24974;54.444;18.560;2023-05-07T06:10:35;10.02;;;4.93;;
28796;SDS011;24974;54.444;18.560;2023-05-07T06:13:10;8.82;;;5.00;;
28796;SDS011;24974;54.444;18.560;2023-05-07T06:15:41;8.13;;;4.78;;
28796;SDS011;24974;54.444;18.560;2023-05-07T06:18:16;6.68;;;4.72;;
28796;SDS011;24974;54.444;18.560;2023-05-07T06:20:46;7.30;;;4.88;;
28796;SDS011;24974;54.444;18.560;2023-05-07T06:23:26;10.13;;;5.00;;
28796;SDS011;24974;54.444;18.560;2023-05-07T06:25:57;11.52;;;6.30;;
28796;SDS011;24974;54.444;18.560;2023-05-07T06:28:33;12.90;;;7.23;;
28796;SDS011;24974;54.444;18.560;2023-05-07T06:33:46;11.33;;;4.50;;
28796;SDS011;24974;54.444;18.560;2023-05-07T06:36:18;9.25;;;4.75;;
28796;SDS011;24974;54.444;18.560;2023-05-07T06:38:49;6.43;;;4.95;;
28796;SDS011;24974;54.444;18.560;2023-05-07T06:41:20;7.65;;;5.40;;
28796;SDS011;24974;54.444;18.560;2023-05-07T06:43:51;8.30;;;4.82;;
28796;SDS011;24974;54.444;18.560;2023-05-07T06:46:31;6.75;;;5.13;;
28796;SDS011;24974;54.444;18.560;2023-05-07T06:49:02;8.45;;;5.22;;
28796;SDS011;24974;54.444;18.560;2023-05-07T06:51:33;9.10;;;5.45;;
28796;SDS011;24974;54.444;18.560;2023-05-07T06:54:07;11.57;;;5.22;;
28796;SDS011;24974;54.444;18.560;2023-05-07T06:56:40;8.68;;;5.63;;
28796;SDS011;24974;54.444;18.560;2023-05-07T06:59:12;9.13;;;5.70;;
28796;SDS011;24974;54.444;18.560;2023-05-07T07:01:45;10.07;;;5.10;;
28796;SDS011;24974;54.444;18.560;2023-05-07T07:04:16;9.15;;;5.40;;
28796;SDS011;24974;54.444;18.560;2023-05-07T07:06:51;7.15;;;5.28;;
28796;SDS011;24974;54.444;18.560;2023-05-07T07:09:23;7.13;;;5.75;;
28796;SDS011;24974;54.444;18.560;2023-05-07T07:11:55;9.45;;;5.93;;
28796;SDS011;24974;54.444;18.560;2023-05-07T07:14:27;7.32;;;5.55;;
28796;SDS011;24974;54.444;18.560;2023-05-07T07:16:58;8.95;;;6.65;;
28796;SDS011;24974;54.444;18.560;2023-05-07T07:19:29;9.27;;;5.80;;
28796;SDS011;24974;54.444;18.560;2023-05-07T07:22:01;7.35;;;5.07;;
28796;SDS011;24974;54.444;18.560;2023-05-07T07:24:32;12.73;;;5.25;;
28796;SDS011;24974;54.444;18.560;2023-05-07T07:27:07;7.82;;;5.18;;
28796;SDS011;24974;54.444;18.560;2023-05-07T07:29:38;7.72;;;4.97;;
28796;SDS011;24974;54.444;18.560;2023-05-07T07:32:09;10.07;;;5.30;;
28796;SDS011;24974;54.444;18.560;2023-05-07T07:34:41;9.98;;;5.50;;
28796;SDS011;24974;54.444;18.560;2023-05-07T07:37:12;7.60;;;4.90;;
28796;SDS011;24974;54.444;18.560;2023-05-07T07:39:43;6.85;;;5.18;;
28796;SDS011;24974;54.444;18.560;2023-05-07T07:42:15;6.43;;;5.00;;
28796;SDS011;24974;54.444;18.560;2023-05-07T07:44:47;7.47;;;5.05;;
28796;SDS011;24974;54.444;18.560;2023-05-07T07:47:20;11.63;;;5.28;;
28796;SDS011;24974;54.444;18.560;2023-05-07T07:49:53;9.80;;;5.90;;
28796;SDS011;24974;54.444;18.560;2023-05-07T07:52:24;11.73;;;4.93;;
28796;SDS011;24974;54.444;18.560;2023-05-07T07:54:55;9.68;;;5.35;;
28796;SDS011;24974;54.444;18.560;2023-05-07T07:57:26;14.15;;;5.57;;
28796;SDS011;24974;54.444;18.560;2023-05-07T07:59:57;6.95;;;5.20;;
28796;SDS011;24974;54.444;18.560;2023-05-07T08:02:28;7.55;;;5.22;;
28796;SDS011;24974;54.444;18.560;2023-05-07T08:04:59;9.15;;;5.13;;
28796;SDS011;24974;54.444;18.560;2023-05-07T08:07:30;10.73;;;5.32;;
28796;SDS011;24974;54.444;18.560;2023-05-07T08:10:01;7.90;;;4.90;;
28796;SDS011;24974;54.444;18.560;2023-05-07T08:12:32;13.90;;;5.03;;
28796;SDS011;24974;54.444;18.560;2023-05-07T08:15:04;5.45;;;4.60;;
28796;SDS011;24974;54.444;18.560;2023-05-07T08:17:35;5.93;;;4.65;;
28796;SDS011;24974;54.444;18.560;2023-05-07T08:20:06;9.70;;;5.10;;
28796;SDS011;24974;54.444;18.560;2023-05-07T08:22:39;9.73;;;5.32;;
28796;SDS011;24974;54.444;18.560;2023-05-07T08:25:11;5.75;;;4.45;;
28796;SDS011;24974;54.444;18.560;2023-05-07T08:27:42;8.60;;;4.80;;
28796;SDS011;24974;54.444;18.560;2023-05-07T08:30:16;10.82;;;4.90;;
28796;SDS011;24974;54.444;18.560;2023-05-07T08:32:48;10.15;;;4.47;;
28796;SDS011;24974;54.444;18.560;2023-05-07T08:35:19;8.93;;;4.70;;
28796;SDS011;24974;54.444;18.560;2023-05-07T08:37:50;9.98;;;4.85;;
28796;SDS011;24974;54.444;18.560;2023-05-07T08:40:23;10.00;;;4.85;;
28796;SDS011;24974;54.444;18.560;2023-05-07T08:42:56;5.53;;;3.90;;
28796;SDS011;24974;54.444;18.560;2023-05-07T08:45:28;7.65;;;4.93;;
28796;SDS011;24974;54.444;18.560;2023-05-07T08:48:03;9.45;;;4.70;;
28796;SDS011;24974;54.444;18.560;2023-05-07T08:50:39;8.15;;;4.32;;
28796;SDS011;24974;54.444;18.560;2023-05-07T08:53:10;10.07;;;4.55;;
28796;SDS011;24974;54.444;18.560;2023-05-07T08:55:44;8.60;;;5.30;;
28796;SDS011;24974;54.444;18.560;2023-05-07T08:58:16;10.35;;;5.45;;
28796;SDS011;24974;54.444;18.560;2023-05-07T09:00:47;10.10;;;4.90;;
28796;SDS011;24974;54.444;18.560;2023-05-07T09:03:19;7.35;;;4.72;;
28796;SDS011;24974;54.444;18.560;2023-05-07T09:05:53;6.47;;;4.35;;
28796;SDS011;24974;54.444;18.560;2023-05-07T09:08:26;12.38;;;4.50;;
28796;SDS011;24974;54.444;18.560;2023-05-07T09:10:59;9.27;;;4.60;;
28796;SDS011;24974;54.444;18.560;2023-05-07T09:13:30;7.65;;;5.10;;
28796;SDS011;24974;54.444;18.560;2023-05-07T09:16:12;7.63;;;5.10;;
28796;SDS011;24974;54.444;18.560;2023-05-07T09:18:45;12.23;;;5.10;;
28796;SDS011;24974;54.444;18.560;2023-05-07T09:21:19;10.43;;;4.90;;
28796;SDS011;24974;54.444;18.560;2023-05-07T09:23:53;6.40;;;4.00;;
28796;SDS011;24974;54.444;18.560;2023-05-07T09:26:28;5.97;;;4.63;;
28796;SDS011;24974;54.444;18.560;2023-05-07T09:29:00;8.52;;;4.18;;
28796;SDS011;24974;54.444;18.560;2023-05-07T09:31:32;4.97;;;4.03;;
28796;SDS011;24974;54.444;18.560;2023-05-07T09:34:06;8.20;;;4.70;;
28796;SDS011;24974;54.444;18.560;2023-05-07T09:36:40;8.88;;;4.80;;
28796;SDS011;24974;54.444;18.560;2023-05-07T09:39:11;7.43;;;4.82;;
28796;SDS011;24974;54.444;18.560;2023-05-07T09:41:43;5.78;;;4.10;;
28796;SDS011;24974;54.444;18.560;2023-05-07T09:44:21;7.38;;;3.95;;
28796;SDS011;24974;54.444;18.560;2023-05-07T09:46:54;7.10;;;4.32;;
28796;SDS011;24974;54.444;18.560;2023-05-07T09:49:35;9.20;;;4.38;;
28796;SDS011;24974;54.444;18.560;2023-05-07T09:52:13;7.72;;;4.10;;
28796;SDS011;24974;54.444;18.560;2023-05-07T09:54:49;9.57;;;4.65;;
28796;SDS011;24974;54.444;18.560;2023-05-07T09:57:22;5.72;;;3.50;;
28796;SDS011;24974;54.444;18.560;2023-05-07T09:59:59;7.20;;;3.83;;
28796;SDS011;24974;54.444;18.560;2023-05-07T10:02:39;7.57;;;4.38;;
28796;SDS011;24974;54.444;18.560;2023-05-07T10:05:19;5.95;;;3.97;;
28796;SDS011;24974;54.444;18.560;2023-05-07T10:07:53;10.07;;;4.72;;
28796;SDS011;24974;54.444;18.560;2023-05-07T10:10:27;7.18;;;4.57;;
28796;SDS011;24974;54.444;18.560;2023-05-07T10:13:00;6.63;;;4.28;;
28796;SDS011;24974;54.444;18.560;2023-05-07T10:15:37;5.90;;;4.55;;
28796;SDS011;24974;54.444;18.560;2023-05-07T10:18:09;6.63;;;4.43;;
28796;SDS011;24974;54.444;18.560;2023-05-07T10:20:42;6.35;;;4.22;;
28796;SDS011;24974;54.444;18.560;2023-05-07T10:23:18;4.97;;;3.47;;
28796;SDS011;24974;54.444;18.560;2023-05-07T10:25:54;5.43;;;3.30;;
28796;SDS011;24974;54.444;18.560;2023-05-07T10:28:27;7.50;;;3.15;;
28796;SDS011;24974;54.444;18.560;2023-05-07T10:34:12;6.53;;;3.03;;
28796;SDS011;24974;54.444;18.560;2023-05-07T10:36:48;7.43;;;3.35;;
28796;SDS011;24974;54.444;18.560;2023-05-07T10:39:22;7.80;;;3.80;;
28796;SDS011;24974;54.444;18.560;2023-05-07T10:41:54;4.32;;;3.17;;
28796;SDS011;24974;54.444;18.560;2023-05-07T10:44:28;7.82;;;3.38;;
28796;SDS011;24974;54.444;18.560;2023-05-07T10:47:04;7.18;;;4.30;;
28796;SDS011;24974;54.444;18.560;2023-05-07T10:52:25;7.55;;;4.55;;
28796;SDS011;24974;54.444;18.560;2023-05-07T10:55:23;8.25;;;4.22;;
28796;SDS011;24974;54.444;18.560;2023-05-07T11:01:01;6.43;;;4.38;;
28796;SDS011;24974;54.444;18.560;2023-05-07T11:06:38;6.22;;;3.53;;
28796;SDS011;24974;54.444;18.560;2023-05-07T11:09:13;9.60;;;4.18;;
28796;SDS011;24974;54.444;18.560;2023-05-07T11:11:54;7.60;;;4.13;;
28796;SDS011;24974;54.444;18.560;2023-05-07T11:14:46;6.70;;;3.67;;
28796;SDS011;24974;54.444;18.560;2023-05-07T11:17:32;7.80;;;4.38;;
28796;SDS011;24974;54.444;18.560;2023-05-07T11:20:09;6.22;;;4.68;;
28796;SDS011;24974;54.444;18.560;2023-05-07T11:22:46;7.90;;;4.85;;
28796;SDS011;24974;54.444;18.560;2023-05-07T11:25:31;9.38;;;5.00;;
28796;SDS011;24974;54.444;18.560;2023-05-07T11:28:25;9.20;;;4.70;;
28796;SDS011;24974;54.444;18.560;2023-05-07T11:31:05;8.40;;;5.43;;
28796;SDS011;24974;54.444;18.560;2023-05-07T11:33:37;9.38;;;4.82;;
28796;SDS011;24974;54.444;18.560;2023-05-07T11:36:10;8.55;;;4.78;;
28796;SDS011;24974;54.444;18.560;2023-05-07T11:38:47;7.70;;;4.38;;
28796;SDS011;24974;54.444;18.560;2023-05-07T11:41:18;8.98;;;5.28;;
28796;SDS011;24974;54.444;18.560;2023-05-07T11:43:54;7.07;;;4.25;;
28796;SDS011;24974;54.444;18.560;2023-05-07T11:46:28;6.32;;;4.85;;
28796;SDS011;24974;54.444;18.560;2023-05-07T11:49:01;7.53;;;4.50;;
28796;SDS011;24974;54.444;18.560;2023-05-07T11:51:32;6.75;;;4.65;;
28796;SDS011;24974;54.444;18.560;2023-05-07T11:54:05;6.63;;;4.68;;
28796;SDS011;24974;54.444;18.560;2023-05-07T11:56:41;9.25;;;4.55;;
28796;SDS011;24974;54.444;18.560;2023-05-07T11:59:16;7.95;;;5.00;;
28796;SDS011;24974;54.444;18.560;2023-05-07T12:01:47;9.50;;;4.43;;
28796;SDS011;24974;54.444;18.560;2023-05-07T12:04:19;8.23;;;5.00;;
28796;SDS011;24974;54.444;18.560;2023-05-07T12:06:54;9.38;;;4.75;;
28796;SDS011;24974;54.444;18.560;2023-05-07T12:09:26;6.68;;;4.40;;
28796;SDS011;24974;54.444;18.560;2023-05-07T12:11:57;7.05;;;4.25;;
28796;SDS011;24974;54.444;18.560;2023-05-07T12:14:32;9.73;;;4.70;;
28796;SDS011;24974;54.444;18.560;2023-05-07T12:17:10;7.53;;;4.10;;
28796;SDS011;24974;54.444;18.560;2023-05-07T12:19:43;5.05;;;3.58;;
28796;SDS011;24974;54.444;18.560;2023-05-07T12:22:15;9.88;;;3.72;;
28796;SDS011;24974;54.444;18.560;2023-05-07T12:24:50;4.97;;;3.67;;
28796;SDS011;24974;54.444;18.560;2023-05-07T12:27:27;5.00;;;3.83;;
28796;SDS011;24974;54.444;18.560;2023-05-07T12:29:58;6.35;;;3.80;;
28796;SDS011;24974;54.444;18.560;2023-05-07T12:32:29;9.65;;;4.38;;
28796;SDS011;24974;54.444;18.560;2023-05-07T12:35:00;8.85;;;4.20;;
28796;SDS011;24974;54.444;18.560;2023-05-07T12:37:31;8.40;;;4.40;;
28796;SDS011;24974;54.444;18.560;2023-05-07T12:40:08;4.35;;;3.40;;
28796;SDS011;24974;54.444;18.560;2023-05-07T12:42:40;6.88;;;4.38;;
28796;SDS011;24974;54.444;18.560;2023-05-07T12:45:15;5.85;;;3.70;;
28796;SDS011;24974;54.444;18.560;2023-05-07T12:47:46;5.75;;;3.90;;
28796;SDS011;24974;54.444;18.560;2023-05-07T12:50:17;12.85;;;4.20;;
28796;SDS011;24974;54.444;18.560;2023-05-07T12:52:48;6.07;;;3.78;;
28796;SDS011;24974;54.444;18.560;2023-05-07T12:55:19;12.55;;;4.40;;
28796;SDS011;24974;54.444;18.560;2023-05-07T12:57:50;5.63;;;3.65;;
28796;SDS011;24974;54.444;18.560;2023-05-07T13:03:09;7.18;;;3.58;;
28796;SDS011;24974;54.444;18.560;2023-05-07T13:05:40;7.05;;;4.22;;
28796;SDS011;24974;54.444;18.560;2023-05-07T13:08:11;8.82;;;3.85;;
28796;SDS011;24974;54.444;18.560;2023-05-07T13:10:41;8.13;;;3.65;;
28796;SDS011;24974;54.444;18.560;2023-05-07T13:13:12;5.40;;;3.75;;
28796;SDS011;24974;54.444;18.560;2023-05-07T13:15:43;8.05;;;3.75;;
28796;SDS011;24974;54.444;18.560;2023-05-07T13:18:14;7.22;;;3.75;;
28796;SDS011;24974;54.444;18.560;2023-05-07T13:20:44;8.85;;;3.85;;
28796;SDS011;24974;54.444;18.560;2023-05-07T13:23:15;6.57;;;3.95;;
28796;SDS011;24974;54.444;18.560;2023-05-07T13:25:48;7.80;;;3.70;;
28796;SDS011;24974;54.444;18.560;2023-05-07T13:28:21;8.35;;;3.97;;
28796;SDS011;24974;54.444;18.560;2023-05-07T13:30:53;5.75;;;3.92;;
28796;SDS011;24974;54.444;18.560;2023-05-07T13:33:24;5.30;;;3.35;;
28796;SDS011;24974;54.444;18.560;2023-05-07T13:35:55;6.45;;;4.00;;
28796;SDS011;24974;54.444;18.560;2023-05-07T13:38:27;8.18;;;3.78;;
28796;SDS011;24974;54.444;18.560;2023-05-07T13:40:58;8.10;;;3.38;;
28796;SDS011;24974;54.444;18.560;2023-05-07T13:43:28;5.05;;;3.47;;
28796;SDS011;24974;54.444;18.560;2023-05-07T13:46:00;6.93;;;3.50;;
28796;SDS011;24974;54.444;18.560;2023-05-07T13:48:31;7.93;;;3.35;;
28796;SDS011;24974;54.444;18.560;2023-05-07T13:51:02;7.40;;;3.78;;
28796;SDS011;24974;54.444;18.560;2023-05-07T13:53:33;5.40;;;3.25;;
28796;SDS011;24974;54.444;18.560;2023-05-07T13:56:04;8.45;;;3.08;;
28796;SDS011;24974;54.444;18.560;2023-05-07T13:58:35;6.97;;;3.42;;
28796;SDS011;24974;54.444;18.560;2023-05-07T14:01:06;6.40;;;3.17;;
28796;SDS011;24974;54.444;18.560;2023-05-07T14:03:37;3.80;;;2.70;;
28796;SDS011;24974;54.444;18.560;2023-05-07T14:06:09;5.35;;;3.10;;
28796;SDS011;24974;54.444;18.560;2023-05-07T14:08:40;6.80;;;3.20;;
28796;SDS011;24974;54.444;18.560;2023-05-07T14:11:11;6.38;;;3.10;;
28796;SDS011;24974;54.444;18.560;2023-05-07T14:13:42;6.82;;;3.22;;
28796;SDS011;24974;54.444;18.560;2023-05-07T14:16:13;5.22;;;3.50;;
28796;SDS011;24974;54.444;18.560;2023-05-07T14:18:44;7.80;;;3.03;;
28796;SDS011;24974;54.444;18.560;2023-05-07T14:21:15;7.13;;;3.25;;
28796;SDS011;24974;54.444;18.560;2023-05-07T14:23:46;5.68;;;3.50;;
28796;SDS011;24974;54.444;18.560;2023-05-07T14:26:17;5.55;;;3.30;;
28796;SDS011;24974;54.444;18.560;2023-05-07T14:28:48;7.10;;;3.95;;
28796;SDS011;24974;54.444;18.560;2023-05-07T14:31:19;8.73;;;3.50;;
28796;SDS011;24974;54.444;18.560;2023-05-07T14:33:50;4.35;;;2.80;;
28796;SDS011;24974;54.444;18.560;2023-05-07T14:36:22;5.80;;;3.30;;
28796;SDS011;24974;54.444;18.560;2023-05-07T14:38:56;6.65;;;3.50;;
28796;SDS011;24974;54.444;18.560;2023-05-07T14:41:29;13.85;;;6.28;;
28796;SDS011;24974;54.444;18.560;2023-05-07T14:44:01;6.65;;;2.97;;
28796;SDS011;24974;54.444;18.560;2023-05-07T14:46:34;9.40;;;4.13;;
28796;SDS011;24974;54.444;18.560;2023-05-07T14:49:05;12.07;;;5.53;;
28796;SDS011;24974;54.444;18.560;2023-05-07T14:51:35;15.80;;;6.43;;
28796;SDS011;24974;54.444;18.560;2023-05-07T14:54:06;8.95;;;4.05;;
28796;SDS011;24974;54.444;18.560;2023-05-07T14:56:37;14.23;;;5.93;;
28796;SDS011;24974;54.444;18.560;2023-05-07T14:59:08;14.27;;;6.75;;
28796;SDS011;24974;54.444;18.560;2023-05-07T15:01:40;12.35;;;4.80;;
28796;SDS011;24974;54.444;18.560;2023-05-07T15:04:15;18.00;;;7.03;;
28796;SDS011;24974;54.444;18.560;2023-05-07T15:06:46;27.38;;;10.18;;
28796;SDS011;24974;54.444;18.560;2023-05-07T15:09:18;15.07;;;6.88;;
28796;SDS011;24974;54.444;18.560;2023-05-07T15:11:48;10.70;;;5.78;;
28796;SDS011;24974;54.444;18.560;2023-05-07T15:14:19;14.40;;;6.43;;
28796;SDS011;24974;54.444;18.560;2023-05-07T15:16:51;43.45;;;14.77;;
28796;SDS011;24974;54.444;18.560;2023-05-07T15:19:22;18.63;;;7.68;;
28796;SDS011;24974;54.444;18.560;2023-05-07T15:21:56;26.45;;;10.60;;
28796;SDS011;24974;54.444;18.560;2023-05-07T15:24:28;27.70;;;10.60;;
28796;SDS011;24974;54.444;18.560;2023-05-07T15:26:59;25.20;;;8.68;;
28796;SDS011;24974;54.444;18.560;2023-05-07T15:29:31;19.85;;;8.85;;
28796;SDS011;24974;54.444;18.560;2023-05-07T15:32:03;35.70;;;13.82;;
28796;SDS011;24974;54.444;18.560;2023-05-07T15:34:35;25.33;;;12.90;;
28796;SDS011;24974;54.444;18.560;2023-05-07T15:37:05;16.88;;;8.75;;
28796;SDS011;24974;54.444;18.560;2023-05-07T15:39:37;18.85;;;9.80;;
28796;SDS011;24974;54.444;18.560;2023-05-07T15:42:08;39.50;;;19.52;;
28796;SDS011;24974;54.444;18.560;2023-05-07T15:44:38;24.08;;;14.93;;
28796;SDS011;24974;54.444;18.560;2023-05-07T15:47:10;21.98;;;10.88;;
28796;SDS011;24974;54.444;18.560;2023-05-07T15:49:44;13.60;;;8.38;;
28796;SDS011;24974;54.444;18.560;2023-05-07T15:52:15;6.75;;;5.47;;
28796;SDS011;24974;54.444;18.560;2023-05-07T15:54:46;11.57;;;7.90;;
28796;SDS011;24974;54.444;18.560;2023-05-07T15:57:17;12.25;;;7.47;;
28796;SDS011;24974;54.444;18.560;2023-05-07T15:59:49;10.38;;;6.32;;
28796;SDS011;24974;54.444;18.560;2023-05-07T16:02:20;9.95;;;3.88;;
28796;SDS011;24974;54.444;18.560;2023-05-07T16:04:50;8.02;;;5.55;;
28796;SDS011;24974;54.444;18.560;2023-05-07T16:07:22;11.52;;;7.15;;
28796;SDS011;24974;54.444;18.560;2023-05-07T16:09:52;14.30;;;8.38;;
28796;SDS011;24974;54.444;18.560;2023-05-07T16:12:23;20.83;;;12.75;;
28796;SDS011;24974;54.444;18.560;2023-05-07T16:14:54;21.80;;;12.45;;
28796;SDS011;24974;54.444;18.560;2023-05-07T16:17:25;7.43;;;4.47;;
28796;SDS011;24974;54.444;18.560;2023-05-07T16:19:55;12.55;;;4.13;;
28796;SDS011;24974;54.444;18.560;2023-05-07T16:22:28;15.32;;;7.40;;
28796;SDS011;24974;54.444;18.560;2023-05-07T16:24:58;14.15;;;8.80;;
28796;SDS011;24974;54.444;18.560;2023-05-07T16:27:30;9.95;;;5.68;;
28796;SDS011;24974;54.444;18.560;2023-05-07T16:30:01;14.02;;;5.90;;
28796;SDS011;24974;54.444;18.560;2023-05-07T16:32:32;13.20;;;6.80;;
28796;SDS011;24974;54.444;18.560;2023-05-07T16:35:04;13.20;;;5.70;;
28796;SDS011;24974;54.444;18.560;2023-05-07T16:37:35;9.27;;;5.68;;
28796;SDS011;24974;54.444;18.560;2023-05-07T16:40:10;12.75;;;5.07;;
28796;SDS011;24974;54.444;18.560;2023-05-07T16:42:41;25.70;;;10.15;;
28796;SDS011;24974;54.444;18.560;2023-05-07T16:45:12;7.32;;;4.07;;
28796;SDS011;24974;54.444;18.560;2023-05-07T16:47:43;12.57;;;4.20;;
28796;SDS011;24974;54.444;18.560;2023-05-07T16:50:15;8.73;;;4.60;;
28796;SDS011;24974;54.444;18.560;2023-05-07T16:52:45;18.17;;;8.60;;
28796;SDS011;24974;54.444;18.560;2023-05-07T16:55:16;16.92;;;7.55;;
28796;SDS011;24974;54.444;18.560;2023-05-07T16:57:47;14.73;;;7.25;;
28796;SDS011;24974;54.444;18.560;2023-05-07T17:00:18;13.35;;;6.07;;
28796;SDS011;24974;54.444;18.560;2023-05-07T17:02:49;20.27;;;9.68;;
28796;SDS011;24974;54.444;18.560;2023-05-07T17:05:20;16.58;;;9.00;;
28796;SDS011;24974;54.444;18.560;2023-05-07T17:07:51;22.58;;;13.75;;
28796;SDS011;24974;54.444;18.560;2023-05-07T17:10:22;12.20;;;7.70;;
28796;SDS011;24974;54.444;18.560;2023-05-07T17:12:54;18.92;;;10.30;;
28796;SDS011;24974;54.444;18.560;2023-05-07T17:15:25;12.48;;;6.72;;
28796;SDS011;24974;54.444;18.560;2023-05-07T17:17:56;8.48;;;5.25;;
28796;SDS011;24974;54.444;18.560;2023-05-07T17:20:27;16.35;;;8.88;;
28796;SDS011;24974;54.444;18.560;2023-05-07T17:22:57;11.77;;;6.15;;
28796;SDS011;24974;54.444;18.560;2023-05-07T17:25:30;18.83;;;9.27;;
28796;SDS011;24974;54.444;18.560;2023-05-07T17:28:01;8.95;;;5.82;;
28796;SDS011;24974;54.444;18.560;2023-05-07T17:30:33;9.23;;;4.55;;
28796;SDS011;24974;54.444;18.560;2023-05-07T17:33:04;12.35;;;5.93;;
28796;SDS011;24974;54.444;18.560;2023-05-07T17:35:35;31.70;;;19.42;;
28796;SDS011;24974;54.444;18.560;2023-05-07T17:38:06;50.63;;;28.30;;
28796;SDS011;24974;54.444;18.560;2023-05-07T17:40:37;22.90;;;10.43;;
28796;SDS011;24974;54.444;18.560;2023-05-07T17:43:08;13.82;;;7.15;;
28796;SDS011;24974;54.444;18.560;2023-05-07T17:45:39;13.35;;;5.10;;
28796;SDS011;24974;54.444;18.560;2023-05-07T17:48:09;36.83;;;23.08;;
28796;SDS011;24974;54.444;18.560;2023-05-07T17:50:40;66.15;;;43.33;;
28796;SDS011;24974;54.444;18.560;2023-05-07T17:53:11;33.92;;;21.92;;
28796;SDS011;24974;54.444;18.560;2023-05-07T17:55:42;11.52;;;7.68;;
28796;SDS011;24974;54.444;18.560;2023-05-07T17:58:14;20.00;;;6.75;;
28796;SDS011;24974;54.444;18.560;2023-05-07T18:00:45;11.60;;;5.07;;
28796;SDS011;24974;54.444;18.560;2023-05-07T18:03:16;10.10;;;5.07;;
28796;SDS011;24974;54.444;18.560;2023-05-07T18:05:47;13.15;;;4.53;;
28796;SDS011;24974;54.444;18.560;2023-05-07T18:08:18;10.15;;;4.88;;
28796;SDS011;24974;54.444;18.560;2023-05-07T18:10:49;16.00;;;7.18;;
28796;SDS011;24974;54.444;18.560;2023-05-07T18:13:20;19.90;;;8.18;;
28796;SDS011;24974;54.444;18.560;2023-05-07T18:15:50;14.00;;;5.72;;
28796;SDS011;24974;54.444;18.560;2023-05-07T18:18:21;14.35;;;5.95;;
28796;SDS011;24974;54.444;18.560;2023-05-07T18:20:53;25.17;;;10.75;;
28796;SDS011;24974;54.444;18.560;2023-05-07T18:23:24;40.08;;;17.60;;
28796;SDS011;24974;54.444;18.560;2023-05-07T18:25:55;28.55;;;12.88;;
28796;SDS011;24974;54.444;18.560;2023-05-07T18:28:25;63.00;;;18.67;;
28796;SDS011;24974;54.444;18.560;2023-05-07T18:30:56;65.40;;;20.42;;
28796;SDS011;24974;54.444;18.560;2023-05-07T18:33:27;33.78;;;13.73;;
28796;SDS011;24974;54.444;18.560;2023-05-07T18:35:58;59.88;;;20.20;;
28796;SDS011;24974;54.444;18.560;2023-05-07T18:38:28;143.82;;;48.67;;
28796;SDS011;24974;54.444;18.560;2023-05-07T18:41:02;81.60;;;29.77;;
28796;SDS011;24974;54.444;18.560;2023-05-07T18:43:34;146.05;;;43.22;;
28796;SDS011;24974;54.444;18.560;2023-05-07T18:46:05;32.00;;;12.80;;
28796;SDS011;24974;54.444;18.560;2023-05-07T18:48:36;47.53;;;13.88;;
28796;SDS011;24974;54.444;18.560;2023-05-07T18:51:07;44.92;;;14.98;;
28796;SDS011;24974;54.444;18.560;2023-05-07T18:53:41;109.15;;;37.60;;
28796;SDS011;24974;54.444;18.560;2023-05-07T18:56:12;225.23;;;84.18;;
28796;SDS011;24974;54.444;18.560;2023-05-07T18:58:43;212.07;;;84.15;;
28796;SDS011;24974;54.444;18.560;2023-05-07T19:01:14;201.52;;;79.22;;
28796;SDS011;24974;54.444;18.560;2023-05-07T19:03:44;215.57;;;85.43;;
28796;SDS011;24974;54.444;18.560;2023-05-07T19:06:15;55.15;;;23.60;;
28796;SDS011;24974;54.444;18.560;2023-05-07T19:08:46;28.02;;;11.30;;
28796;SDS011;24974;54.444;18.560;2023-05-07T19:11:17;24.13;;;11.25;;
28796;SDS011;24974;54.444;18.560;2023-05-07T19:13:47;50.72;;;21.55;;